sensor_id;sensor_type;location;lat;lon;timestamp;temperature;humidity
67163;DHT22;54092;53.088;8.850;2023-10-31T00:01:55;12.20;99.90
67163;DHT22;54092;53.088;8.850;2023-10-31T00:04:21;12.30;99.90
67163;DHT22;54092;53.088;8.850;2023-10-31T00:06:46;12.30;99.90
67163;DHT22;54092;53.088;8.850;2023-10-31T00:09:12;12.20;99.90
67163;DHT22;54092;53.088;8.850;2023-10-31T00:11:37;12.20;99.90
67163;DHT22;54092;53.088;8.850;2023-10-31T00:14:03;12.30;99.90
67163;DHT22;54092;53.088;8.850;2023-10-31T00:16:29;12.20;99.90
67163;DHT22;54092;53.088;8.850;2023-10-31T00:18:54;12.20;99.90
67163;DHT22;54092;53.088;8.850;2023-10-31T00:21:19;12.20;99.90
67163;DHT22;54092;53.088;8.850;2023-10-31T00:23:48;12.20;99.90
67163;DHT22;54092;53.088;8.850;2023-10-31T00:26:14;12.20;99.90
67163;DHT22;54092;53.088;8.850;2023-10-31T00:28:39;12.30;99.90
67163;DHT22;54092;53.088;8.850;2023-10-31T00:31:05;12.20;99.90
67163;DHT22;54092;53.088;8.850;2023-10-31T00:33:32;12.30;99.90
67163;DHT22;54092;53.088;8.850;2023-10-31T00:35:57;12.30;99.90
67163;DHT22;54092;53.088;8.850;2023-10-31T00:38:23;12.30;99.90
67163;DHT22;54092;53.088;8.850;2023-10-31T00:40:48;12.30;99.90
67163;DHT22;54092;53.088;8.850;2023-10-31T00:43:13;12.30;99.90
67163;DHT22;54092;53.088;8.850;2023-10-31T00:45:39;12.30;99.90
67163;DHT22;54092;53.088;8.850;2023-10-31T00:48:04;12.30;99.90
67163;DHT22;54092;53.088;8.850;2023-10-31T00:50:30;12.30;99.90
67163;DHT22;54092;53.088;8.850;2023-10-31T00:52:55;12.30;99.90
67163;DHT22;54092;53.088;8.850;2023-10-31T00:55:21;12.20;99.90
67163;DHT22;54092;53.088;8.850;2023-10-31T00:57:46;12.30;99.90
67163;DHT22;54092;53.088;8.850;2023-10-31T01:00:12;12.30;99.90
67163;DHT22;54092;53.088;8.850;2023-10-31T01:02:37;12.30;99.90
67163;DHT22;54092;53.088;8.850;2023-10-31T01:05:03;12.20;99.90
67163;DHT22;54092;53.088;8.850;2023-10-31T01:07:29;12.20;99.90
67163;DHT22;54092;53.088;8.850;2023-10-31T01:09:54;12.20;99.90
67163;DHT22;54092;53.088;8.850;2023-10-31T01:12:20;12.30;99.90
67163;DHT22;54092;53.088;8.850;2023-10-31T01:14:45;12.30;99.90
67163;DHT22;54092;53.088;8.850;2023-10-31T01:17:10;12.30;99.90
67163;DHT22;54092;53.088;8.850;2023-10-31T01:19:36;12.20;99.90
67163;DHT22;54092;53.088;8.850;2023-10-31T01:22:01;12.30;99.90
67163;DHT22;54092;53.088;8.850;2023-10-31T01:24:27;12.30;99.90
67163;DHT22;54092;53.088;8.850;2023-10-31T01:26:52;12.30;99.90
67163;DHT22;54092;53.088;8.850;2023-10-31T01:29:18;12.30;99.90
67163;DHT22;54092;53.088;8.850;2023-10-31T01:31:43;12.30;99.90
67163;DHT22;54092;53.088;8.850;2023-10-31T01:34:09;12.30;99.90
67163;DHT22;54092;53.088;8.850;2023-10-31T01:36:34;12.30;99.90
67163;DHT22;54092;53.088;8.850;2023-10-31T01:39:00;12.30;99.90
67163;DHT22;54092;53.088;8.850;2023-10-31T01:41:25;12.30;99.90
67163;DHT22;54092;53.088;8.850;2023-10-31T01:43:51;12.30;99.90
67163;DHT22;54092;53.088;8.850;2023-10-31T01:46:16;12.30;99.90
67163;DHT22;54092;53.088;8.850;2023-10-31T01:48:41;12.30;99.90
67163;DHT22;54092;53.088;8.850;2023-10-31T01:51:07;12.30;99.90
67163;DHT22;54092;53.088;8.850;2023-10-31T01:53:34;12.30;99.90
67163;DHT22;54092;53.088;8.850;2023-10-31T01:56:01;12.30;99.90
67163;DHT22;54092;53.088;8.850;2023-10-31T01:58:36;12.30;99.90
67163;DHT22;54092;53.088;8.850;2023-10-31T02:01:02;12.30;99.90
67163;DHT22;54092;53.088;8.850;2023-10-31T02:03:28;12.30;99.90
67163;DHT22;54092;53.088;8.850;2023-10-31T02:05:53;12.30;99.90
67163;DHT22;54092;53.088;8.850;2023-10-31T02:08:19;12.30;99.90
67163;DHT22;54092;53.088;8.850;2023-10-31T02:10:44;12.30;99.90
67163;DHT22;54092;53.088;8.850;2023-10-31T02:13:14;12.30;99.90
67163;DHT22;54092;53.088;8.850;2023-10-31T02:15:39;12.30;99.90
67163;DHT22;54092;53.088;8.850;2023-10-31T02:18:05;12.40;99.90
67163;DHT22;54092;53.088;8.850;2023-10-31T02:20:31;12.40;99.90
67163;DHT22;54092;53.088;8.850;2023-10-31T02:22:56;12.40;99.90
67163;DHT22;54092;53.088;8.850;2023-10-31T02:25:22;12.40;99.90
67163;DHT22;54092;53.088;8.850;2023-10-31T02:27:47;12.40;99.90
67163;DHT22;54092;53.088;8.850;2023-10-31T02:30:13;12.40;99.90
67163;DHT22;54092;53.088;8.850;2023-10-31T02:32:38;12.40;99.90
67163;DHT22;54092;53.088;8.850;2023-10-31T02:35:04;12.40;99.90
67163;DHT22;54092;53.088;8.850;2023-10-31T02:37:29;12.40;99.90
67163;DHT22;54092;53.088;8.850;2023-10-31T02:39:55;12.40;99.90
67163;DHT22;54092;53.088;8.850;2023-10-31T02:42:20;12.40;99.90
67163;DHT22;54092;53.088;8.850;2023-10-31T02:44:46;12.40;99.90
67163;DHT22;54092;53.088;8.850;2023-10-31T02:47:12;12.40;99.90
67163;DHT22;54092;53.088;8.850;2023-10-31T02:49:37;12.40;99.90
67163;DHT22;54092;53.088;8.850;2023-10-31T02:52:02;12.40;99.90
67163;DHT22;54092;53.088;8.850;2023-10-31T02:54:28;12.40;99.90
67163;DHT22;54092;53.088;8.850;2023-10-31T02:56:53;12.40;99.90
67163;DHT22;54092;53.088;8.850;2023-10-31T02:59:19;12.40;99.90
67163;DHT22;54092;53.088;8.850;2023-10-31T03:01:44;12.40;99.90
67163;DHT22;54092;53.088;8.850;2023-10-31T03:04:10;12.40;99.90
67163;DHT22;54092;53.088;8.850;2023-10-31T03:06:35;12.40;99.90
67163;DHT22;54092;53.088;8.850;2023-10-31T03:09:00;12.40;99.90
67163;DHT22;54092;53.088;8.850;2023-10-31T03:11:26;12.40;99.90
67163;DHT22;54092;53.088;8.850;2023-10-31T03:13:51;12.40;99.90
67163;DHT22;54092;53.088;8.850;2023-10-31T03:16:18;12.40;99.90
67163;DHT22;54092;53.088;8.850;2023-10-31T03:18:45;12.40;99.90
67163;DHT22;54092;53.088;8.850;2023-10-31T03:21:11;12.40;99.90
67163;DHT22;54092;53.088;8.850;2023-10-31T03:23:36;12.40;99.90
67163;DHT22;54092;53.088;8.850;2023-10-31T03:26:02;12.40;99.90
67163;DHT22;54092;53.088;8.850;2023-10-31T03:28:27;12.40;99.90
67163;DHT22;54092;53.088;8.850;2023-10-31T03:30:53;12.40;99.90
67163;DHT22;54092;53.088;8.850;2023-10-31T03:33:19;12.40;99.90
67163;DHT22;54092;53.088;8.850;2023-10-31T03:35:44;12.40;99.90
67163;DHT22;54092;53.088;8.850;2023-10-31T03:38:10;12.40;99.90
67163;DHT22;54092;53.088;8.850;2023-10-31T03:40:35;12.50;99.90
67163;DHT22;54092;53.088;8.850;2023-10-31T03:43:01;12.50;99.90
67163;DHT22;54092;53.088;8.850;2023-10-31T03:45:26;12.50;99.90
67163;DHT22;54092;53.088;8.850;2023-10-31T03:47:52;12.50;99.90
67163;DHT22;54092;53.088;8.850;2023-10-31T03:50:17;12.50;99.90
67163;DHT22;54092;53.088;8.850;2023-10-31T03:52:43;12.50;99.90
67163;DHT22;54092;53.088;8.850;2023-10-31T03:55:08;12.50;99.90
67163;DHT22;54092;53.088;8.850;2023-10-31T03:57:34;12.50;99.90
67163;DHT22;54092;53.088;8.850;2023-10-31T03:59:59;12.50;99.90
67163;DHT22;54092;53.088;8.850;2023-10-31T04:02:25;12.50;99.90
67163;DHT22;54092;53.088;8.850;2023-10-31T04:04:50;12.50;99.90
67163;DHT22;54092;53.088;8.850;2023-10-31T04:07:16;12.50;99.90
67163;DHT22;54092;53.088;8.850;2023-10-31T04:09:42;12.50;99.90
67163;DHT22;54092;53.088;8.850;2023-10-31T04:12:08;12.50;99.90
67163;DHT22;54092;53.088;8.850;2023-10-31T04:14:34;12.50;99.90
67163;DHT22;54092;53.088;8.850;2023-10-31T04:16:59;12.50;99.90
67163;DHT22;54092;53.088;8.850;2023-10-31T04:19:25;12.50;99.90
67163;DHT22;54092;53.088;8.850;2023-10-31T04:21:51;12.50;99.90
67163;DHT22;54092;53.088;8.850;2023-10-31T04:24:17;12.50;99.90
67163;DHT22;54092;53.088;8.850;2023-10-31T04:26:42;12.50;99.90
67163;DHT22;54092;53.088;8.850;2023-10-31T04:29:08;12.50;99.90
67163;DHT22;54092;53.088;8.850;2023-10-31T04:31:33;12.50;99.90
67163;DHT22;54092;53.088;8.850;2023-10-31T04:33:59;12.50;99.90
67163;DHT22;54092;53.088;8.850;2023-10-31T04:36:24;12.50;99.90
67163;DHT22;54092;53.088;8.850;2023-10-31T04:38:49;12.50;99.90
67163;DHT22;54092;53.088;8.850;2023-10-31T04:41:15;12.50;99.90
67163;DHT22;54092;53.088;8.850;2023-10-31T04:43:40;12.50;99.90
67163;DHT22;54092;53.088;8.850;2023-10-31T04:46:07;12.50;99.90
67163;DHT22;54092;53.088;8.850;2023-10-31T04:48:32;12.50;99.90
67163;DHT22;54092;53.088;8.850;2023-10-31T04:50:58;12.50;99.90
67163;DHT22;54092;53.088;8.850;2023-10-31T04:53:23;12.50;99.90
67163;DHT22;54092;53.088;8.850;2023-10-31T04:55:49;12.50;99.90
67163;DHT22;54092;53.088;8.850;2023-10-31T04:58:14;12.50;99.90
67163;DHT22;54092;53.088;8.850;2023-10-31T05:00:40;12.60;99.90
67163;DHT22;54092;53.088;8.850;2023-10-31T05:03:06;12.50;99.90
67163;DHT22;54092;53.088;8.850;2023-10-31T05:05:31;12.50;99.90
67163;DHT22;54092;53.088;8.850;2023-10-31T05:07:57;12.50;99.90
67163;DHT22;54092;53.088;8.850;2023-10-31T05:10:23;12.50;99.90
67163;DHT22;54092;53.088;8.850;2023-10-31T05:12:49;12.40;99.90
67163;DHT22;54092;53.088;8.850;2023-10-31T05:15:16;12.50;99.90
67163;DHT22;54092;53.088;8.850;2023-10-31T05:17:41;12.50;99.90
67163;DHT22;54092;53.088;8.850;2023-10-31T05:20:07;12.50;99.90
67163;DHT22;54092;53.088;8.850;2023-10-31T05:22:34;12.40;99.90
67163;DHT22;54092;53.088;8.850;2023-10-31T05:24:59;12.40;99.90
67163;DHT22;54092;53.088;8.850;2023-10-31T05:27:25;12.40;99.90
67163;DHT22;54092;53.088;8.850;2023-10-31T05:29:50;12.30;99.90
67163;DHT22;54092;53.088;8.850;2023-10-31T05:32:15;12.30;99.90
67163;DHT22;54092;53.088;8.850;2023-10-31T05:34:41;12.30;99.90
67163;DHT22;54092;53.088;8.850;2023-10-31T05:37:07;12.20;99.90
67163;DHT22;54092;53.088;8.850;2023-10-31T05:39:32;12.20;99.90
67163;DHT22;54092;53.088;8.850;2023-10-31T05:41:58;12.20;99.90
67163;DHT22;54092;53.088;8.850;2023-10-31T05:44:24;12.20;99.90
67163;DHT22;54092;53.088;8.850;2023-10-31T05:46:49;12.10;99.90
67163;DHT22;54092;53.088;8.850;2023-10-31T05:49:14;12.00;99.90
67163;DHT22;54092;53.088;8.850;2023-10-31T05:51:40;12.00;99.90
67163;DHT22;54092;53.088;8.850;2023-10-31T05:54:08;11.80;99.90
67163;DHT22;54092;53.088;8.850;2023-10-31T05:56:34;11.50;99.90
67163;DHT22;54092;53.088;8.850;2023-10-31T05:58:59;11.40;99.90
67163;DHT22;54092;53.088;8.850;2023-10-31T06:01:25;11.20;99.90
67163;DHT22;54092;53.088;8.850;2023-10-31T06:03:50;11.20;99.90
67163;DHT22;54092;53.088;8.850;2023-10-31T06:06:16;11.10;99.90
67163;DHT22;54092;53.088;8.850;2023-10-31T06:08:42;11.00;99.90
67163;DHT22;54092;53.088;8.850;2023-10-31T06:11:07;11.00;99.90
67163;DHT22;54092;53.088;8.850;2023-10-31T06:13:33;10.90;99.90
67163;DHT22;54092;53.088;8.850;2023-10-31T06:16:00;10.80;99.90
67163;DHT22;54092;53.088;8.850;2023-10-31T06:18:25;10.70;99.90
67163;DHT22;54092;53.088;8.850;2023-10-31T06:20:52;10.70;99.90
67163;DHT22;54092;53.088;8.850;2023-10-31T06:23:17;10.70;99.90
67163;DHT22;54092;53.088;8.850;2023-10-31T06:25:43;10.70;99.90
67163;DHT22;54092;53.088;8.850;2023-10-31T06:28:08;10.60;99.90
67163;DHT22;54092;53.088;8.850;2023-10-31T06:30:34;10.60;99.90
67163;DHT22;54092;53.088;8.850;2023-10-31T06:32:59;10.60;99.90
67163;DHT22;54092;53.088;8.850;2023-10-31T06:35:27;10.60;99.90
67163;DHT22;54092;53.088;8.850;2023-10-31T06:37:54;10.60;99.90
67163;DHT22;54092;53.088;8.850;2023-10-31T06:40:20;10.60;99.90
67163;DHT22;54092;53.088;8.850;2023-10-31T06:42:45;10.50;99.90
67163;DHT22;54092;53.088;8.850;2023-10-31T06:45:10;10.50;99.90
67163;DHT22;54092;53.088;8.850;2023-10-31T06:47:36;10.60;99.90
67163;DHT22;54092;53.088;8.850;2023-10-31T06:50:01;10.60;99.90
67163;DHT22;54092;53.088;8.850;2023-10-31T06:52:28;10.50;99.90
67163;DHT22;54092;53.088;8.850;2023-10-31T06:54:53;10.50;99.90
67163;DHT22;54092;53.088;8.850;2023-10-31T06:57:19;10.60;99.90
67163;DHT22;54092;53.088;8.850;2023-10-31T06:59:44;10.50;99.90
67163;DHT22;54092;53.088;8.850;2023-10-31T07:02:09;10.50;99.90
67163;DHT22;54092;53.088;8.850;2023-10-31T07:04:35;10.60;99.90
67163;DHT22;54092;53.088;8.850;2023-10-31T07:07:00;10.50;99.90
67163;DHT22;54092;53.088;8.850;2023-10-31T07:09:26;10.50;99.90
67163;DHT22;54092;53.088;8.850;2023-10-31T07:11:52;10.60;99.90
67163;DHT22;54092;53.088;8.850;2023-10-31T07:14:17;10.50;99.90
67163;DHT22;54092;53.088;8.850;2023-10-31T07:16:43;10.60;99.90
67163;DHT22;54092;53.088;8.850;2023-10-31T07:19:11;10.60;99.90
67163;DHT22;54092;53.088;8.850;2023-10-31T07:21:37;10.60;99.90
67163;DHT22;54092;53.088;8.850;2023-10-31T07:24:02;10.50;99.90
67163;DHT22;54092;53.088;8.850;2023-10-31T07:26:28;10.50;99.90
67163;DHT22;54092;53.088;8.850;2023-10-31T07:28:53;10.50;99.90
67163;DHT22;54092;53.088;8.850;2023-10-31T07:31:19;10.40;99.90
67163;DHT22;54092;53.088;8.850;2023-10-31T07:33:44;10.40;99.90
67163;DHT22;54092;53.088;8.850;2023-10-31T07:36:10;10.40;99.90
67163;DHT22;54092;53.088;8.850;2023-10-31T07:38:36;10.30;99.90
67163;DHT22;54092;53.088;8.850;2023-10-31T07:41:01;10.40;99.90
67163;DHT22;54092;53.088;8.850;2023-10-31T07:43:27;10.40;99.90
67163;DHT22;54092;53.088;8.850;2023-10-31T07:45:52;10.30;99.90
67163;DHT22;54092;53.088;8.850;2023-10-31T07:48:18;10.30;99.90
67163;DHT22;54092;53.088;8.850;2023-10-31T07:50:43;10.30;99.90
67163;DHT22;54092;53.088;8.850;2023-10-31T07:53:09;10.30;99.90
67163;DHT22;54092;53.088;8.850;2023-10-31T07:55:34;10.30;99.90
67163;DHT22;54092;53.088;8.850;2023-10-31T07:57:59;10.30;99.90
67163;DHT22;54092;53.088;8.850;2023-10-31T08:00:25;10.30;99.90
67163;DHT22;54092;53.088;8.850;2023-10-31T08:02:50;10.30;99.90
67163;DHT22;54092;53.088;8.850;2023-10-31T08:05:16;10.30;99.90
67163;DHT22;54092;53.088;8.850;2023-10-31T08:07:41;10.30;99.90
67163;DHT22;54092;53.088;8.850;2023-10-31T08:10:07;10.20;99.90
67163;DHT22;54092;53.088;8.850;2023-10-31T08:12:33;10.30;99.90
67163;DHT22;54092;53.088;8.850;2023-10-31T08:14:58;10.20;99.90
67163;DHT22;54092;53.088;8.850;2023-10-31T08:17:24;10.20;99.90
67163;DHT22;54092;53.088;8.850;2023-10-31T08:19:49;10.20;99.90
67163;DHT22;54092;53.088;8.850;2023-10-31T08:22:15;10.20;99.90
67163;DHT22;54092;53.088;8.850;2023-10-31T08:24:40;10.20;99.90
67163;DHT22;54092;53.088;8.850;2023-10-31T08:27:06;10.30;99.90
67163;DHT22;54092;53.088;8.850;2023-10-31T08:29:32;10.30;99.90
67163;DHT22;54092;53.088;8.850;2023-10-31T08:31:58;10.30;99.90
67163;DHT22;54092;53.088;8.850;2023-10-31T08:34:23;10.40;99.90
67163;DHT22;54092;53.088;8.850;2023-10-31T08:36:49;10.50;99.90
67163;DHT22;54092;53.088;8.850;2023-10-31T08:39:14;10.50;99.90
67163;DHT22;54092;53.088;8.850;2023-10-31T08:41:49;10.50;99.90
67163;DHT22;54092;53.088;8.850;2023-10-31T08:44:15;10.60;99.90
67163;DHT22;54092;53.088;8.850;2023-10-31T08:46:40;10.50;99.90
67163;DHT22;54092;53.088;8.850;2023-10-31T08:49:06;10.50;99.90
67163;DHT22;54092;53.088;8.850;2023-10-31T08:51:31;10.60;99.90
67163;DHT22;54092;53.088;8.850;2023-10-31T08:53:57;10.60;99.90
67163;DHT22;54092;53.088;8.850;2023-10-31T08:56:22;10.70;99.90
67163;DHT22;54092;53.088;8.850;2023-10-31T08:58:47;10.70;99.90
67163;DHT22;54092;53.088;8.850;2023-10-31T09:01:13;10.80;99.90
67163;DHT22;54092;53.088;8.850;2023-10-31T09:03:38;10.90;99.90
67163;DHT22;54092;53.088;8.850;2023-10-31T09:06:04;10.90;99.90
67163;DHT22;54092;53.088;8.850;2023-10-31T09:08:30;10.90;99.90
67163;DHT22;54092;53.088;8.850;2023-10-31T09:10:56;11.00;99.90
67163;DHT22;54092;53.088;8.850;2023-10-31T09:13:21;11.00;99.90
67163;DHT22;54092;53.088;8.850;2023-10-31T09:15:47;11.00;99.90
67163;DHT22;54092;53.088;8.850;2023-10-31T09:18:12;10.90;99.90
67163;DHT22;54092;53.088;8.850;2023-10-31T09:20:38;10.90;99.90
67163;DHT22;54092;53.088;8.850;2023-10-31T09:23:03;10.80;99.90
67163;DHT22;54092;53.088;8.850;2023-10-31T09:25:29;10.80;99.90
67163;DHT22;54092;53.088;8.850;2023-10-31T09:27:55;10.80;99.90
67163;DHT22;54092;53.088;8.850;2023-10-31T09:30:21;10.80;99.90
67163;DHT22;54092;53.088;8.850;2023-10-31T09:32:47;10.80;99.90
67163;DHT22;54092;53.088;8.850;2023-10-31T09:35:12;10.80;99.90
67163;DHT22;54092;53.088;8.850;2023-10-31T09:37:38;10.80;99.90
67163;DHT22;54092;53.088;8.850;2023-10-31T09:40:04;10.80;99.90
67163;DHT22;54092;53.088;8.850;2023-10-31T09:42:30;10.80;99.90
67163;DHT22;54092;53.088;8.850;2023-10-31T09:44:55;10.90;99.90
67163;DHT22;54092;53.088;8.850;2023-10-31T09:47:21;10.90;99.90
67163;DHT22;54092;53.088;8.850;2023-10-31T09:49:47;11.00;99.90
67163;DHT22;54092;53.088;8.850;2023-10-31T09:52:12;11.00;99.90
67163;DHT22;54092;53.088;8.850;2023-10-31T09:54:38;11.00;99.90
67163;DHT22;54092;53.088;8.850;2023-10-31T09:57:04;11.10;99.90
67163;DHT22;54092;53.088;8.850;2023-10-31T09:59:30;11.10;99.90
67163;DHT22;54092;53.088;8.850;2023-10-31T10:01:56;11.10;99.90
67163;DHT22;54092;53.088;8.850;2023-10-31T10:04:22;11.20;99.90
67163;DHT22;54092;53.088;8.850;2023-10-31T10:07:00;11.20;99.90
67163;DHT22;54092;53.088;8.850;2023-10-31T10:09:26;11.20;99.90
67163;DHT22;54092;53.088;8.850;2023-10-31T10:11:52;11.20;99.90
67163;DHT22;54092;53.088;8.850;2023-10-31T10:14:18;11.20;99.90
67163;DHT22;54092;53.088;8.850;2023-10-31T10:16:43;11.20;99.90
67163;DHT22;54092;53.088;8.850;2023-10-31T10:21:51;11.10;99.90
67163;DHT22;54092;53.088;8.850;2023-10-31T10:24:17;11.10;99.90
67163;DHT22;54092;53.088;8.850;2023-10-31T10:26:43;11.10;99.90
67163;DHT22;54092;53.088;8.850;2023-10-31T10:29:09;11.20;99.90
67163;DHT22;54092;53.088;8.850;2023-10-31T10:31:35;11.30;99.90
67163;DHT22;54092;53.088;8.850;2023-10-31T10:34:00;11.40;99.90
67163;DHT22;54092;53.088;8.850;2023-10-31T10:36:27;11.50;99.90
67163;DHT22;54092;53.088;8.850;2023-10-31T10:38:56;11.50;99.90
67163;DHT22;54092;53.088;8.850;2023-10-31T10:41:21;11.50;99.90
67163;DHT22;54092;53.088;8.850;2023-10-31T10:43:50;11.70;99.90
67163;DHT22;54092;53.088;8.850;2023-10-31T10:46:17;11.90;99.90
67163;DHT22;54092;53.088;8.850;2023-10-31T10:48:43;12.10;99.90
67163;DHT22;54092;53.088;8.850;2023-10-31T10:51:13;12.20;99.90
67163;DHT22;54092;53.088;8.850;2023-10-31T10:54:06;12.20;99.90
67163;DHT22;54092;53.088;8.850;2023-10-31T10:56:46;12.10;99.90
67163;DHT22;54092;53.088;8.850;2023-10-31T10:59:15;12.00;99.90
67163;DHT22;54092;53.088;8.850;2023-10-31T11:01:43;12.00;99.90
67163;DHT22;54092;53.088;8.850;2023-10-31T11:04:11;11.90;99.90
67163;DHT22;54092;53.088;8.850;2023-10-31T11:06:37;11.80;99.90
67163;DHT22;54092;53.088;8.850;2023-10-31T11:09:03;11.80;99.90
67163;DHT22;54092;53.088;8.850;2023-10-31T11:11:29;11.80;99.90
67163;DHT22;54092;53.088;8.850;2023-10-31T11:13:55;11.70;99.90
67163;DHT22;54092;53.088;8.850;2023-10-31T11:16:37;11.70;99.90
67163;DHT22;54092;53.088;8.850;2023-10-31T11:19:04;11.70;99.90
67163;DHT22;54092;53.088;8.850;2023-10-31T11:21:30;11.70;99.90
67163;DHT22;54092;53.088;8.850;2023-10-31T11:23:57;11.70;99.90
67163;DHT22;54092;53.088;8.850;2023-10-31T11:26:22;11.70;99.90
67163;DHT22;54092;53.088;8.850;2023-10-31T11:28:50;11.70;99.90
67163;DHT22;54092;53.088;8.850;2023-10-31T11:31:16;11.70;99.90
67163;DHT22;54092;53.088;8.850;2023-10-31T11:33:41;11.80;99.90
67163;DHT22;54092;53.088;8.850;2023-10-31T11:36:08;11.90;99.90
67163;DHT22;54092;53.088;8.850;2023-10-31T11:38:36;12.00;99.90
67163;DHT22;54092;53.088;8.850;2023-10-31T11:41:02;12.10;99.90
67163;DHT22;54092;53.088;8.850;2023-10-31T11:44:10;12.20;99.90
67163;DHT22;54092;53.088;8.850;2023-10-31T11:46:18;12.30;99.90
67163;DHT22;54092;53.088;8.850;2023-10-31T11:48:48;12.30;99.90
67163;DHT22;54092;53.088;8.850;2023-10-31T11:51:16;12.40;99.90
67163;DHT22;54092;53.088;8.850;2023-10-31T11:53:41;12.30;99.90
67163;DHT22;54092;53.088;8.850;2023-10-31T11:56:12;12.30;99.90
67163;DHT22;54092;53.088;8.850;2023-10-31T11:58:37;12.30;99.90
67163;DHT22;54092;53.088;8.850;2023-10-31T12:01:03;12.20;99.90
67163;DHT22;54092;53.088;8.850;2023-10-31T12:03:36;12.20;99.90
67163;DHT22;54092;53.088;8.850;2023-10-31T12:06:02;12.10;99.90
67163;DHT22;54092;53.088;8.850;2023-10-31T12:08:34;12.00;99.90
67163;DHT22;54092;53.088;8.850;2023-10-31T12:11:19;12.00;99.90
67163;DHT22;54092;53.088;8.850;2023-10-31T12:13:54;11.90;99.90
67163;DHT22;54092;53.088;8.850;2023-10-31T12:16:22;11.90;99.90
67163;DHT22;54092;53.088;8.850;2023-10-31T12:18:53;11.80;99.90
67163;DHT22;54092;53.088;8.850;2023-10-31T12:21:18;11.80;99.90
67163;DHT22;54092;53.088;8.850;2023-10-31T12:23:44;11.70;99.90
67163;DHT22;54092;53.088;8.850;2023-10-31T12:26:09;11.80;99.90
67163;DHT22;54092;53.088;8.850;2023-10-31T12:28:36;11.80;99.90
67163;DHT22;54092;53.088;8.850;2023-10-31T12:31:03;11.70;99.90
67163;DHT22;54092;53.088;8.850;2023-10-31T12:33:28;11.70;99.90
67163;DHT22;54092;53.088;8.850;2023-10-31T12:35:57;11.80;99.90
67163;DHT22;54092;53.088;8.850;2023-10-31T12:38:23;11.80;99.90
67163;DHT22;54092;53.088;8.850;2023-10-31T12:40:49;11.80;99.90
67163;DHT22;54092;53.088;8.850;2023-10-31T12:43:15;11.80;99.90
67163;DHT22;54092;53.088;8.850;2023-10-31T12:45:41;11.80;99.90
67163;DHT22;54092;53.088;8.850;2023-10-31T12:48:07;11.90;99.90
67163;DHT22;54092;53.088;8.850;2023-10-31T12:50:33;11.80;99.90
67163;DHT22;54092;53.088;8.850;2023-10-31T12:52:59;11.60;99.90
67163;DHT22;54092;53.088;8.850;2023-10-31T12:55:28;11.40;99.90
67163;DHT22;54092;53.088;8.850;2023-10-31T12:57:56;11.30;99.90
67163;DHT22;54092;53.088;8.850;2023-10-31T13:00:25;11.20;99.90
67163;DHT22;54092;53.088;8.850;2023-10-31T13:02:59;11.20;99.90
67163;DHT22;54092;53.088;8.850;2023-10-31T13:05:25;11.20;99.90
67163;DHT22;54092;53.088;8.850;2023-10-31T13:07:51;11.10;99.90
67163;DHT22;54092;53.088;8.850;2023-10-31T13:10:18;11.00;99.90
67163;DHT22;54092;53.088;8.850;2023-10-31T13:12:44;11.00;99.90
67163;DHT22;54092;53.088;8.850;2023-10-31T13:15:10;10.90;99.90
67163;DHT22;54092;53.088;8.850;2023-10-31T13:17:36;10.80;99.90
67163;DHT22;54092;53.088;8.850;2023-10-31T13:20:04;10.80;99.90
67163;DHT22;54092;53.088;8.850;2023-10-31T13:22:31;10.70;99.90
67163;DHT22;54092;53.088;8.850;2023-10-31T13:24:57;10.70;99.90
67163;DHT22;54092;53.088;8.850;2023-10-31T13:27:22;10.60;99.90
67163;DHT22;54092;53.088;8.850;2023-10-31T13:29:48;10.50;99.90
67163;DHT22;54092;53.088;8.850;2023-10-31T13:32:15;10.50;99.90
67163;DHT22;54092;53.088;8.850;2023-10-31T13:34:41;10.50;99.90
67163;DHT22;54092;53.088;8.850;2023-10-31T13:37:06;10.40;99.90
67163;DHT22;54092;53.088;8.850;2023-10-31T13:39:33;10.30;99.90
67163;DHT22;54092;53.088;8.850;2023-10-31T13:41:59;10.30;99.90
67163;DHT22;54092;53.088;8.850;2023-10-31T13:44:24;10.30;99.90
67163;DHT22;54092;53.088;8.850;2023-10-31T13:46:50;10.30;99.90
67163;DHT22;54092;53.088;8.850;2023-10-31T13:49:15;10.30;99.90
67163;DHT22;54092;53.088;8.850;2023-10-31T13:51:41;10.30;99.90
67163;DHT22;54092;53.088;8.850;2023-10-31T13:54:06;10.30;99.90
67163;DHT22;54092;53.088;8.850;2023-10-31T13:56:31;10.30;99.90
67163;DHT22;54092;53.088;8.850;2023-10-31T13:58:58;10.30;99.90
67163;DHT22;54092;53.088;8.850;2023-10-31T14:01:23;10.20;99.90
67163;DHT22;54092;53.088;8.850;2023-10-31T14:03:50;10.20;99.90
67163;DHT22;54092;53.088;8.850;2023-10-31T14:06:16;10.30;99.90
67163;DHT22;54092;53.088;8.850;2023-10-31T14:08:42;10.30;99.90
67163;DHT22;54092;53.088;8.850;2023-10-31T14:11:08;10.40;99.90
67163;DHT22;54092;53.088;8.850;2023-10-31T14:13:35;10.40;99.90
67163;DHT22;54092;53.088;8.850;2023-10-31T14:16:01;10.30;99.90
67163;DHT22;54092;53.088;8.850;2023-10-31T14:18:26;10.20;99.90
67163;DHT22;54092;53.088;8.850;2023-10-31T14:20:51;10.10;99.90
67163;DHT22;54092;53.088;8.850;2023-10-31T14:23:17;10.10;99.90
67163;DHT22;54092;53.088;8.850;2023-10-31T14:25:42;10.00;99.90
67163;DHT22;54092;53.088;8.850;2023-10-31T14:28:08;10.00;99.90
67163;DHT22;54092;53.088;8.850;2023-10-31T14:30:34;9.90;99.90
67163;DHT22;54092;53.088;8.850;2023-10-31T14:32:59;9.80;99.90
67163;DHT22;54092;53.088;8.850;2023-10-31T14:35:25;9.70;99.90
67163;DHT22;54092;53.088;8.850;2023-10-31T14:37:50;9.70;99.90
67163;DHT22;54092;53.088;8.850;2023-10-31T14:40:16;9.70;99.90
67163;DHT22;54092;53.088;8.850;2023-10-31T14:42:41;9.80;99.90
67163;DHT22;54092;53.088;8.850;2023-10-31T14:45:07;9.80;99.90
67163;DHT22;54092;53.088;8.850;2023-10-31T14:47:32;9.70;99.90
67163;DHT22;54092;53.088;8.850;2023-10-31T14:49:58;9.70;99.90
67163;DHT22;54092;53.088;8.850;2023-10-31T14:52:23;9.70;99.90
67163;DHT22;54092;53.088;8.850;2023-10-31T14:54:49;9.70;99.90
67163;DHT22;54092;53.088;8.850;2023-10-31T14:57:15;9.80;99.90
67163;DHT22;54092;53.088;8.850;2023-10-31T14:59:40;9.80;99.90
67163;DHT22;54092;53.088;8.850;2023-10-31T15:02:06;9.70;99.90
67163;DHT22;54092;53.088;8.850;2023-10-31T15:04:31;9.70;99.90
67163;DHT22;54092;53.088;8.850;2023-10-31T15:06:57;9.70;99.90
67163;DHT22;54092;53.088;8.850;2023-10-31T15:09:22;9.60;99.90
67163;DHT22;54092;53.088;8.850;2023-10-31T15:11:48;9.50;99.90
67163;DHT22;54092;53.088;8.850;2023-10-31T15:14:13;9.40;99.90
67163;DHT22;54092;53.088;8.850;2023-10-31T15:16:40;9.30;99.90
67163;DHT22;54092;53.088;8.850;2023-10-31T15:19:05;9.20;99.90
67163;DHT22;54092;53.088;8.850;2023-10-31T15:21:32;9.20;99.90
67163;DHT22;54092;53.088;8.850;2023-10-31T15:23:57;9.10;99.90
67163;DHT22;54092;53.088;8.850;2023-10-31T15:26:23;9.00;99.90
67163;DHT22;54092;53.088;8.850;2023-10-31T15:28:51;9.00;99.90